Time,TemperatureF,DewpointF,PressureIn,WindDirection,WindDirectionDegrees,WindSpeedMPH,WindSpeedGustMPH,Humidity,HourlyPrecipIn,Conditions,Clouds,dailyrainin,SoftwareType,DateUTC
2013-02-10 00:02:00,36.0,23.0,-100.00,SSE,160,23.0,35.0,57,-99.99,,,-99.99,,2013-02-10 09:02:00,
2013-02-10 00:11:00,36.0,23.0,-100.00,SSE,160,23.0,35.0,57,-99.99,,,-99.99,,2013-02-10 09:11:00,
2013-02-10 00:21:00,36.0,23.0,-100.00,South,175,29.0,44.0,57,-99.99,,,-99.99,,2013-02-10 09:21:00,
2013-02-10 00:31:00,36.0,23.0,-100.00,South,175,29.0,44.0,57,-99.99,,,-99.99,,2013-02-10 09:31:00,
2013-02-10 00:41:00,36.0,23.0,-100.00,South,175,29.0,44.0,57,-99.99,,,-99.99,,2013-02-10 09:41:00,
2013-02-10 00:51:00,36.0,24.0,-100.00,SSE,160,27.0,41.0,59,-99.99,,,-99.99,,2013-02-10 09:51:00,
2013-02-10 01:01:00,36.0,24.0,-100.00,SSE,160,27.0,41.0,59,-99.99,,,-99.99,,2013-02-10 10:01:00,
2013-02-10 01:11:00,36.0,24.0,-100.00,SSE,160,27.0,41.0,59,-99.99,,,-99.99,,2013-02-10 10:11:00,
2013-02-10 01:21:00,36.0,24.0,-100.00,SSE,165,27.0,38.0,60,-99.99,,,-99.99,,2013-02-10 10:21:00,
2013-02-10 01:31:00,36.0,24.0,-100.00,SSE,165,27.0,38.0,60,-99.99,,,-99.99,,2013-02-10 10:31:00,
2013-02-10 01:41:00,36.0,24.0,-100.00,SSE,165,27.0,38.0,60,-99.99,,,-99.99,,2013-02-10 10:41:00,
2013-02-10 01:51:00,36.0,24.0,-100.00,SSE,155,22.0,37.0,60,-99.99,,,-99.99,,2013-02-10 10:51:00,
2013-02-10 02:01:00,36.0,24.0,-100.00,SSE,155,22.0,37.0,60,-99.99,,,-99.99,,2013-02-10 11:01:00,
2013-02-10 02:11:00,36.0,24.0,-100.00,SSE,155,22.0,37.0,60,-99.99,,,-99.99,,2013-02-10 11:11:00,
2013-02-10 02:21:00,37.0,24.0,-100.00,South,170,20.0,35.0,58,-99.99,,,-99.99,,2013-02-10 11:21:00,
2013-02-10 02:32:00,37.0,24.0,-100.00,South,170,20.0,35.0,58,-99.99,,,-99.99,,2013-02-10 11:32:00,
2013-02-10 02:42:00,37.0,24.0,-100.00,South,170,20.0,35.0,58,-99.99,,,-99.99,,2013-02-10 11:42:00,
2013-02-10 02:52:00,38.0,24.0,-100.00,SSE,160,29.0,39.0,57,-99.99,,,-99.99,,2013-02-10 11:52:00,
2013-02-10 03:01:00,38.0,24.0,-100.00,SSE,160,29.0,39.0,57,-99.99,,,-99.99,,2013-02-10 12:01:00,
2013-02-10 03:12:00,38.0,24.0,-100.00,SSE,160,29.0,39.0,57,-99.99,,,-99.99,,2013-02-10 12:12:00,
2013-02-10 03:21:00,38.0,24.0,-100.00,SSE,155,24.0,40.0,56,-99.99,,,-99.99,,2013-02-10 12:21:00,
2013-02-10 03:32:00,38.0,24.0,-100.00,SSE,155,24.0,40.0,56,-99.99,,,-99.99,,2013-02-10 12:32:00,
2013-02-10 03:41:00,38.0,24.0,-100.00,SSE,155,24.0,40.0,56,-99.99,,,-99.99,,2013-02-10 12:41:00,
2013-02-10 03:52:00,38.0,24.0,-100.00,SSE,165,18.0,35.0,57,-99.99,,,-99.99,,2013-02-10 12:52:00,
2013-02-10 04:02:00,38.0,24.0,-100.00,SSE,165,18.0,35.0,57,-99.99,,,-99.99,,2013-02-10 13:02:00,
2013-02-10 04:11:00,38.0,24.0,-100.00,SSE,165,18.0,35.0,57,-99.99,,,-99.99,,2013-02-10 13:11:00,
2013-02-10 04:21:00,37.0,24.0,-100.00,SSE,165,16.0,31.0,58,-99.99,,,-99.99,,2013-02-10 13:21:00,
2013-02-10 04:31:00,37.0,24.0,-100.00,SSE,165,16.0,31.0,58,-99.99,,,-99.99,,2013-02-10 13:31:00,
2013-02-10 04:41:00,37.0,24.0,-100.00,SSE,165,16.0,31.0,58,-99.99,,,-99.99,,2013-02-10 13:41:00,
2013-02-10 04:51:00,38.0,25.0,-100.00,SSE,165,22.0,32.0,58,-99.99,,,-99.99,,2013-02-10 13:51:00,
2013-02-10 05:02:00,38.0,25.0,-100.00,SSE,165,22.0,32.0,58,-99.99,,,-99.99,,2013-02-10 14:02:00,
2013-02-10 05:11:00,38.0,25.0,-100.00,SSE,165,22.0,32.0,58,-99.99,,,-99.99,,2013-02-10 14:11:00,
2013-02-10 05:21:00,37.0,25.0,-100.00,SSE,160,24.0,32.0,59,-99.99,,,-99.99,,2013-02-10 14:21:00,
2013-02-10 05:31:00,37.0,25.0,-100.00,SSE,160,24.0,32.0,59,-99.99,,,-99.99,,2013-02-10 14:31:00,
2013-02-10 05:41:00,37.0,25.0,-100.00,SSE,160,24.0,32.0,59,-99.99,,,-99.99,,2013-02-10 14:41:00,
2013-02-10 05:51:00,38.0,25.0,-100.00,SSE,155,27.0,39.0,58,-99.99,,,-99.99,,2013-02-10 14:51:00,
2013-02-10 06:01:00,38.0,25.0,-100.00,SSE,155,27.0,39.0,58,-99.99,,,-99.99,,2013-02-10 15:01:00,
2013-02-10 06:11:00,38.0,25.0,-100.00,SSE,155,27.0,39.0,58,-99.99,,,-99.99,,2013-02-10 15:11:00,
2013-02-10 06:21:00,38.0,25.0,-100.00,SE,145,19.0,34.0,59,-99.99,,,-99.99,,2013-02-10 15:21:00,
2013-02-10 06:31:00,38.0,25.0,-100.00,SE,145,19.0,34.0,59,-99.99,,,-99.99,,2013-02-10 15:31:00,
2013-02-10 06:41:00,38.0,25.0,-100.00,SE,145,19.0,34.0,59,-99.99,,,-99.99,,2013-02-10 15:41:00,
2013-02-10 06:51:00,38.0,25.0,-100.00,SSE,155,24.0,34.0,59,-99.99,,,-99.99,,2013-02-10 15:51:00,
2013-02-10 07:01:00,38.0,25.0,-100.00,SSE,155,24.0,34.0,59,-99.99,,,-99.99,,2013-02-10 16:01:00,
2013-02-10 07:11:00,38.0,25.0,-100.00,SSE,155,24.0,34.0,59,-99.99,,,-99.99,,2013-02-10 16:11:00,
2013-02-10 07:21:00,38.0,25.0,-100.00,SSE,160,28.0,37.0,59,-99.99,,,-99.99,,2013-02-10 16:21:00,
2013-02-10 07:32:00,38.0,25.0,-100.00,SSE,160,28.0,37.0,59,-99.99,,,-99.99,,2013-02-10 16:32:00,
2013-02-10 07:42:00,38.0,25.0,-100.00,SSE,160,28.0,37.0,59,-99.99,,,-99.99,,2013-02-10 16:42:00,
2013-02-10 07:51:00,38.0,25.0,-100.00,South,185,35.0,51.0,59,-99.99,,,-99.99,,2013-02-10 16:51:00,
2013-02-10 08:01:00,38.0,25.0,-100.00,South,185,35.0,51.0,59,-99.99,,,-99.99,,2013-02-10 17:01:00,
2013-02-10 08:11:00,38.0,25.0,-100.00,South,185,35.0,51.0,59,-99.99,,,-99.99,,2013-02-10 17:11:00,
2013-02-10 08:21:00,38.0,25.0,-100.00,SSE,165,29.0,39.0,59,-99.99,,,-99.99,,2013-02-10 17:21:00,
2013-02-10 08:32:00,38.0,25.0,-100.00,SSE,165,29.0,39.0,59,-99.99,,,-99.99,,2013-02-10 17:32:00,
2013-02-10 08:42:00,38.0,25.0,-100.00,SSE,165,29.0,39.0,59,-99.99,,,-99.99,,2013-02-10 17:42:00,
2013-02-10 08:52:00,38.0,25.0,-100.00,South,170,37.0,48.0,59,-99.99,,,-99.99,,2013-02-10 17:52:00,
2013-02-10 09:02:00,38.0,25.0,-100.00,South,170,37.0,48.0,59,-99.99,,,-99.99,,2013-02-10 18:02:00,
2013-02-10 09:11:00,38.0,25.0,-100.00,South,170,37.0,48.0,59,-99.99,,,-99.99,,2013-02-10 18:11:00,
2013-02-10 09:21:00,38.0,25.0,-100.00,SSE,160,33.0,51.0,60,-99.99,,,-99.99,,2013-02-10 18:21:00,
2013-02-10 09:32:00,38.0,25.0,-100.00,SSE,160,33.0,51.0,60,-99.99,,,-99.99,,2013-02-10 18:32:00,
2013-02-10 09:42:00,38.0,25.0,-100.00,SSE,160,33.0,51.0,60,-99.99,,,-99.99,,2013-02-10 18:42:00,
2013-02-10 09:52:00,37.0,26.0,-100.00,SSE,165,28.0,41.0,61,-99.99,,,-99.99,,2013-02-10 18:52:00,
2013-02-10 10:01:00,37.0,26.0,-100.00,SSE,165,28.0,41.0,61,-99.99,,,-99.99,,2013-02-10 19:01:00,
2013-02-10 10:11:00,37.0,26.0,-100.00,SSE,165,28.0,41.0,61,-99.99,,,-99.99,,2013-02-10 19:11:00,
2013-02-10 10:21:00,37.0,26.0,-100.00,SSE,160,23.0,37.0,61,-99.99,,,-99.99,,2013-02-10 19:21:00,
2013-02-10 10:32:00,37.0,26.0,-100.00,SSE,160,23.0,37.0,61,-99.99,,,-99.99,,2013-02-10 19:32:00,
2013-02-10 10:42:00,37.0,26.0,-100.00,SSE,160,23.0,37.0,61,-99.99,,,-99.99,,2013-02-10 19:42:00,
2013-02-10 10:51:00,38.0,25.0,-100.00,SSE,160,16.0,39.0,60,-99.99,,,-99.99,,2013-02-10 19:51:00,
2013-02-10 11:01:00,38.0,25.0,-100.00,SSE,160,16.0,39.0,60,-99.99,,,-99.99,,2013-02-10 20:01:00,
2013-02-10 11:11:00,38.0,25.0,-100.00,SSE,160,16.0,39.0,60,-99.99,,,-99.99,,2013-02-10 20:11:00,
2013-02-10 11:21:00,39.0,25.0,-100.00,SSE,160,20.0,32.0,57,-99.99,,,-99.99,,2013-02-10 20:21:00,
2013-02-10 11:32:00,39.0,25.0,-100.00,SSE,160,20.0,32.0,57,-99.99,,,-99.99,,2013-02-10 20:32:00,
2013-02-10 11:42:00,39.0,25.0,-100.00,SSE,160,20.0,32.0,57,-99.99,,,-99.99,,2013-02-10 20:42:00,
2013-02-10 11:52:00,38.0,26.0,-100.00,SSE,165,23.0,34.0,60,-99.99,,,-99.99,,2013-02-10 20:52:00,
2013-02-10 12:02:00,38.0,26.0,-100.00,SSE,165,23.0,34.0,60,-99.99,,,-99.99,,2013-02-10 21:02:00,
2013-02-10 12:11:00,38.0,26.0,-100.00,SSE,165,23.0,34.0,60,-99.99,,,-99.99,,2013-02-10 21:11:00,
2013-02-10 12:21:00,37.0,26.0,-100.00,South,180,22.0,34.0,62,-99.99,,,-99.99,,2013-02-10 21:21:00,
2013-02-10 12:32:00,37.0,26.0,-100.00,South,180,22.0,34.0,62,-99.99,,,-99.99,,2013-02-10 21:32:00,
2013-02-10 12:42:00,37.0,26.0,-100.00,South,180,22.0,34.0,62,-99.99,,,-99.99,,2013-02-10 21:42:00,
2013-02-10 12:51:00,37.0,26.0,-100.00,SSE,155,21.0,30.0,64,-99.99,,,-99.99,,2013-02-10 21:51:00,
2013-02-10 13:01:00,37.0,26.0,-100.00,SSE,155,21.0,30.0,64,-99.99,,,-99.99,,2013-02-10 22:01:00,
2013-02-10 13:11:00,37.0,26.0,-100.00,SSE,155,21.0,30.0,64,-99.99,,,-99.99,,2013-02-10 22:11:00,
2013-02-10 13:21:00,35.0,28.0,-100.00,SSE,155,21.0,32.0,77,-99.99,,,-99.99,,2013-02-10 22:21:00,
2013-02-10 13:32:00,35.0,28.0,-100.00,SSE,155,21.0,32.0,77,-99.99,,,-99.99,,2013-02-10 22:32:00,
2013-02-10 13:42:00,35.0,28.0,-100.00,SSE,155,21.0,32.0,77,-99.99,,,-99.99,,2013-02-10 22:42:00,
2013-02-10 13:52:00,35.0,28.0,-100.00,SSE,155,22.0,39.0,76,-99.99,,,-99.99,,2013-02-10 22:52:00,
2013-02-10 14:02:00,35.0,28.0,-100.00,SSE,155,22.0,39.0,76,-99.99,,,-99.99,,2013-02-10 23:02:00,
2013-02-10 14:11:00,35.0,28.0,-100.00,SSE,155,22.0,39.0,76,-99.99,,,-99.99,,2013-02-10 23:11:00,
2013-02-10 14:21:00,35.0,26.0,-100.00,SSE,155,28.0,34.0,70,-99.99,,,-99.99,,2013-02-10 23:21:00,
2013-02-10 14:32:00,35.0,26.0,-100.00,SSE,155,28.0,34.0,70,-99.99,,,-99.99,,2013-02-10 23:32:00,
2013-02-10 14:42:00,35.0,26.0,-100.00,SSE,155,28.0,34.0,70,-99.99,,,-99.99,,2013-02-10 23:42:00,
2013-02-10 14:52:00,33.0,27.0,-100.00,SSE,165,21.0,32.0,78,-99.99,,,-99.99,,2013-02-10 23:52:00,
2013-02-10 15:01:00,33.0,27.0,-100.00,SSE,165,21.0,32.0,78,-99.99,,,-99.99,,2013-02-11 00:01:00,
2013-02-10 15:11:00,33.0,27.0,-100.00,SSE,165,21.0,32.0,78,-99.99,,,-99.99,,2013-02-11 00:11:00,
2013-02-10 15:21:00,33.0,25.0,-100.00,South,180,14.0,32.0,72,-99.99,,,-99.99,,2013-02-11 00:21:00,
2013-02-10 15:32:00,33.0,25.0,-100.00,South,180,14.0,32.0,72,-99.99,,,-99.99,,2013-02-11 00:32:00,
2013-02-10 15:42:00,33.0,25.0,-100.00,South,180,14.0,32.0,72,-99.99,,,-99.99,,2013-02-11 00:42:00,
2013-02-10 15:51:00,33.0,24.0,-100.00,SSE,160,19.0,37.0,69,-99.99,,,-99.99,,2013-02-11 00:51:00,
2013-02-10 16:01:00,33.0,24.0,-100.00,SSE,160,19.0,37.0,69,-99.99,,,-99.99,,2013-02-11 01:01:00,
2013-02-10 16:11:00,33.0,24.0,-100.00,SSE,160,19.0,37.0,69,-99.99,,,-99.99,,2013-02-11 01:11:00,
2013-02-10 16:21:00,33.0,23.0,-100.00,South,180,26.0,31.0,66,-99.99,,,-99.99,,2013-02-11 01:21:00,
2013-02-10 16:32:00,33.0,23.0,-100.00,South,180,26.0,31.0,66,-99.99,,,-99.99,,2013-02-11 01:32:00,
2013-02-10 16:41:00,33.0,23.0,-100.00,South,180,26.0,31.0,66,-99.99,,,-99.99,,2013-02-11 01:41:00,
2013-02-10 16:52:00,32.0,23.0,-100.00,South,180,26.0,34.0,68,-99.99,,,-99.99,,2013-02-11 01:52:00,
2013-02-10 17:01:00,32.0,23.0,-100.00,South,180,26.0,34.0,68,-99.99,,,-99.99,,2013-02-11 02:01:00,
2013-02-10 17:11:00,32.0,23.0,-100.00,South,180,26.0,34.0,68,-99.99,,,-99.99,,2013-02-11 02:11:00,
2013-02-10 17:21:00,31.0,22.0,-100.00,SSE,165,31.0,43.0,70,-99.99,,,-99.99,,2013-02-11 02:21:00,
2013-02-10 17:31:00,31.0,22.0,-100.00,SSE,165,31.0,43.0,70,-99.99,,,-99.99,,2013-02-11 02:31:00,
2013-02-10 17:42:00,31.0,22.0,-100.00,SSE,165,31.0,43.0,70,-99.99,,,-99.99,,2013-02-11 02:42:00,
2013-02-10 17:52:00,31.0,22.0,-100.00,South,180,22.0,37.0,68,-99.99,,,-99.99,,2013-02-11 02:52:00,
2013-02-10 18:01:00,31.0,22.0,-100.00,South,180,22.0,37.0,68,-99.99,,,-99.99,,2013-02-11 03:01:00,
2013-02-10 18:11:00,31.0,22.0,-100.00,South,180,22.0,37.0,68,-99.99,,,-99.99,,2013-02-11 03:11:00,
2013-02-10 18:21:00,31.0,22.0,-100.00,South,180,16.0,27.0,69,-99.99,,,-99.99,,2013-02-11 03:21:00,
2013-02-10 18:31:00,31.0,22.0,-100.00,South,180,16.0,27.0,69,-99.99,,,-99.99,,2013-02-11 03:31:00,
2013-02-10 18:41:00,31.0,22.0,-100.00,South,180,16.0,27.0,69,-99.99,,,-99.99,,2013-02-11 03:41:00,
2013-02-10 18:52:00,31.0,22.0,-100.00,South,170,22.0,29.0,68,-99.99,,,-99.99,,2013-02-11 03:52:00,
2013-02-10 19:01:00,31.0,22.0,-100.00,South,170,22.0,29.0,68,-99.99,,,-99.99,,2013-02-11 04:01:00,
2013-02-10 19:11:00,31.0,22.0,-100.00,South,170,22.0,29.0,68,-99.99,,,-99.99,,2013-02-11 04:11:00,
2013-02-10 19:21:00,31.0,21.0,-100.00,SSE,160,14.0,23.0,66,-99.99,,,-99.99,,2013-02-11 04:21:00,
2013-02-10 19:31:00,31.0,21.0,-100.00,SSE,160,14.0,23.0,66,-99.99,,,-99.99,,2013-02-11 04:31:00,
2013-02-10 19:41:00,31.0,21.0,-100.00,SSE,160,14.0,23.0,66,-99.99,,,-99.99,,2013-02-11 04:41:00,
2013-02-10 19:51:00,31.0,21.0,-100.00,SSE,165,9.0,18.0,67,-99.99,,,-99.99,,2013-02-11 04:51:00,
2013-02-10 20:01:00,31.0,21.0,-100.00,SSE,165,9.0,18.0,67,-99.99,,,-99.99,,2013-02-11 05:01:00,
2013-02-10 20:11:00,31.0,21.0,-100.00,SSE,165,9.0,18.0,67,-99.99,,,-99.99,,2013-02-11 05:11:00,
2013-02-10 20:22:00,24.0,18.0,-100.00,North,0,6.0,11.0,76,-99.99,,,-99.99,,2013-02-11 05:22:00,
2013-02-10 20:31:00,24.0,18.0,-100.00,North,0,6.0,11.0,76,-99.99,,,-99.99,,2013-02-11 05:31:00,
2013-02-10 20:41:00,24.0,18.0,-100.00,North,0,6.0,11.0,76,-99.99,,,-99.99,,2013-02-11 05:41:00,
2013-02-10 20:52:00,24.0,19.0,-100.00,North,0,8.0,9.0,81,-99.99,,,-99.99,,2013-02-11 05:52:00,
2013-02-10 21:01:00,24.0,19.0,-100.00,North,0,8.0,9.0,81,-99.99,,,-99.99,,2013-02-11 06:01:00,
2013-02-10 21:11:00,24.0,19.0,-100.00,North,0,8.0,9.0,81,-99.99,,,-99.99,,2013-02-11 06:11:00,
2013-02-10 21:21:00,23.0,19.0,-100.00,WNW,285,4.0,4.0,83,-99.99,,,-99.99,,2013-02-11 06:21:00,
2013-02-10 21:32:00,23.0,19.0,-100.00,WNW,285,4.0,4.0,83,-99.99,,,-99.99,,2013-02-11 06:32:00,
2013-02-10 21:42:00,23.0,19.0,-100.00,WNW,285,4.0,4.0,83,-99.99,,,-99.99,,2013-02-11 06:42:00,
2013-02-10 21:51:00,23.0,20.0,-100.00,NNW,330,1.0,1.0,85,-99.99,,,-99.99,,2013-02-11 06:51:00,
2013-02-10 22:01:00,23.0,20.0,-100.00,NNW,330,1.0,1.0,85,-99.99,,,-99.99,,2013-02-11 07:01:00,
2013-02-10 22:11:00,23.0,20.0,-100.00,NNW,330,1.0,1.0,85,-99.99,,,-99.99,,2013-02-11 07:11:00,
2013-02-10 22:21:00,23.0,20.0,-100.00,NW,310,2.0,3.0,87,-99.99,,,-99.99,,2013-02-11 07:21:00,
2013-02-10 22:32:00,23.0,20.0,-100.00,NW,310,2.0,3.0,87,-99.99,,,-99.99,,2013-02-11 07:32:00,
2013-02-10 22:41:00,23.0,20.0,-100.00,NW,310,2.0,3.0,87,-99.99,,,-99.99,,2013-02-11 07:41:00,
2013-02-10 22:51:00,23.0,20.0,-100.00,NW,305,4.0,5.0,87,-99.99,,,-99.99,,2013-02-11 07:51:00,
2013-02-10 23:01:00,23.0,20.0,-100.00,NW,305,4.0,5.0,87,-99.99,,,-99.99,,2013-02-11 08:01:00,
2013-02-10 23:11:00,23.0,20.0,-100.00,NW,305,4.0,5.0,87,-99.99,,,-99.99,,2013-02-11 08:11:00,
2013-02-10 23:21:00,23.0,20.0,-100.00,NW,320,4.0,6.0,88,-99.99,,,-99.99,,2013-02-11 08:21:00,
2013-02-10 23:31:00,23.0,20.0,-100.00,NW,320,4.0,6.0,88,-99.99,,,-99.99,,2013-02-11 08:31:00,
2013-02-10 23:42:00,23.0,20.0,-100.00,NW,320,4.0,6.0,88,-99.99,,,-99.99,,2013-02-11 08:42:00,
2013-02-10 23:52:00,24.0,21.0,-100.00,NW,320,5.0,6.0,88,-99.99,,,-99.99,,2013-02-11 08:52:00,